Time;durP1;ratioP1;P1;durP2;ratioP2;P2;SDS_P1;SDS_P2;PMS_P1;PMS_P2;Temp;Humidity;BMP_temperature;BMP_pressure;BME280_temperature;BME280_humidity;BME280_pressure;Samples;Min_cycle;Max_cycle;Signal;HPM_P1;HPM_P2
2023/05/22 00:00:51;;;;;;;15.40;13.47;;;23.20;93.40;;;;;;5022297;28;20441;-87
2023/05/22 00:03:18;;;;;;;13.93;12.50;;;23.20;93.40;;;;;;5022347;28;20176;-87
2023/05/22 00:05:44;;;;;;;15.30;13.80;;;23.20;93.40;;;;;;5030226;28;20442;-87
2023/05/22 00:08:10;;;;;;;14.00;12.60;;;23.20;93.50;;;;;;5023904;28;20415;-87
2023/05/22 00:10:39;;;;;;;12.60;11.40;;;23.20;93.50;;;;;;5006108;28;20419;-87
2023/05/22 00:13:05;;;;;;;14.00;12.60;;;23.20;93.50;;;;;;5022399;28;20438;-87
2023/05/22 00:15:34;;;;;;;12.50;11.40;;;23.10;93.50;;;;;;5022393;28;20456;-87
2023/05/22 00:18:03;;;;;;;14.03;12.63;;;23.10;93.50;;;;;;5023400;28;20474;-87
2023/05/22 00:20:31;;;;;;;15.10;13.10;;;23.10;93.60;;;;;;5022241;28;20864;-87
2023/05/22 00:23:02;;;;;;;13.50;12.20;;;23.10;93.60;;;;;;5022348;28;20433;-87
2023/05/22 00:25:30;;;;;;;14.27;12.87;;;23.10;93.60;;;;;;5006216;28;20448;-87
2023/05/22 00:27:58;;;;;;;13.50;12.10;;;23.10;93.60;;;;;;5022074;28;20423;-87
2023/05/22 00:30:24;;;;;;;13.00;11.70;;;23.10;93.70;;;;;;5021622;28;20452;-88
2023/05/22 00:32:50;;;;;;;13.50;12.20;;;23.00;93.70;;;;;;5037898;28;20864;-88
2023/05/22 00:35:18;;;;;;;13.07;11.77;;;23.10;93.70;;;;;;5005729;28;20433;-87
2023/05/22 00:37:45;;;;;;;13.40;11.90;;;23.00;93.70;;;;;;5005162;28;20280;-87
2023/05/22 00:40:14;;;;;;;12.87;11.63;;;23.00;93.70;;;;;;5037837;28;20419;-88
2023/05/22 00:42:43;;;;;;;13.17;11.77;;;23.00;93.70;;;;;;5005151;28;20481;-88
2023/05/22 00:45:13;;;;;;;14.17;11.47;;;23.00;93.70;;;;;;5021226;28;20453;-87
2023/05/22 00:47:40;;;;;;;13.63;12.30;;;23.00;93.70;;;;;;5005005;28;20431;-88
2023/05/22 00:50:09;;;;;;;12.87;11.60;;;23.00;93.80;;;;;;5005286;28;20523;-87
2023/05/22 00:52:40;;;;;;;12.40;11.20;;;22.90;93.70;;;;;;5037729;28;20435;-88
2023/05/22 00:55:11;;;;;;;12.80;11.50;;;23.00;93.80;;;;;;5006024;28;20536;-88
2023/05/22 00:57:41;;;;;;;12.77;11.57;;;22.90;93.70;;;;;;5023259;28;20533;-88
2023/05/22 01:00:15;;;;;;;12.97;11.77;;;22.90;93.70;;;;;;5038138;28;20772;-88
2023/05/22 01:02:41;;;;;;;12.80;11.60;;;22.90;93.80;;;;;;5021510;28;20473;-88
2023/05/22 01:05:11;;;;;;;13.33;11.93;;;22.80;93.80;;;;;;5024326;28;20426;-88
2023/05/22 01:07:38;;;;;;;12.63;11.43;;;22.90;93.90;;;;;;5004784;28;20450;-88
2023/05/22 01:10:07;;;;;;;12.73;11.00;;;22.80;93.80;;;;;;5021867;28;20867;-88
2023/05/22 01:13:03;;;;;;;11.50;10.40;;;22.80;93.80;;;;;;5004751;28;20445;-88
2023/05/22 01:15:38;;;;;;;12.43;11.23;;;22.80;93.80;;;;;;5004743;28;20512;-88
2023/05/22 01:18:42;;;;;;;11.30;10.20;;;22.80;93.80;;;;;;5021152;28;20548;-88
2023/05/22 01:21:20;;;;;;;12.20;11.10;;;22.80;93.80;;;;;;5018777;28;20453;-88
2023/05/22 01:23:53;;;;;;;12.00;10.80;;;22.80;93.90;;;;;;5020961;28;20426;-88
2023/05/22 01:27:02;;;;;;;12.53;11.33;;;22.80;93.90;;;;;;5005185;28;20450;-88
2023/05/22 01:30:01;;;;;;;11.33;10.30;;;22.70;93.90;;;;;;4992419;28;20765;-88
2023/05/22 01:32:29;;;;;;;11.30;10.23;;;22.70;93.90;;;;;;5023399;28;20443;-88
2023/05/22 01:35:00;;;;;;;11.00;10.10;;;22.70;94.00;;;;;;5025231;28;20437;-88
2023/05/22 01:37:26;;;;;;;11.63;10.53;;;22.70;94.00;;;;;;5041153;28;20503;-88
2023/05/22 01:39:55;;;;;;;11.07;9.90;;;22.70;94.00;;;;;;5009226;28;20480;-88
2023/05/22 01:42:21;;;;;;;13.13;11.83;;;22.70;94.00;;;;;;5024727;28;20464;-87
2023/05/22 01:44:48;;;;;;;11.53;10.50;;;22.60;94.00;;;;;;5008263;28;20524;-88
2023/05/22 01:47:15;;;;;;;12.93;11.63;;;22.60;94.10;;;;;;5008386;28;20430;-88
2023/05/22 01:49:41;;;;;;;11.03;10.03;;;22.60;94.10;;;;;;5058484;28;20854;-88
2023/05/22 01:52:21;;;;;;;12.37;11.07;;;22.60;94.10;;;;;;5024589;28;20477;-88
2023/05/22 01:55:04;;;;;;;11.20;10.20;;;22.60;94.10;;;;;;5037394;28;20440;-89
2023/05/22 01:57:37;;;;;;;10.70;9.70;;;22.60;94.10;;;;;;5060834;28;20557;-88
2023/05/22 02:00:12;;;;;;;12.30;10.70;;;22.60;94.10;;;;;;5044772;28;20739;-88
2023/05/22 02:02:49;;;;;;;11.83;10.30;;;22.60;94.10;;;;;;5061150;28;20791;-89
2023/05/22 02:05:17;;;;;;;11.07;9.97;;;22.50;94.00;;;;;;5061189;28;21182;-89
2023/05/22 02:07:48;;;;;;;11.93;10.83;;;22.60;94.10;;;;;;5060550;28;20420;-88
2023/05/22 02:10:17;;;;;;;11.63;10.43;;;22.50;94.00;;;;;;5044183;28;20446;-89
2023/05/22 02:12:43;;;;;;;11.17;10.13;;;22.50;94.10;;;;;;5044218;28;20426;-89
2023/05/22 02:15:10;;;;;;;10.90;9.90;;;22.50;94.10;;;;;;5060819;28;20436;-89
2023/05/22 02:17:39;;;;;;;11.50;10.33;;;22.50;94.10;;;;;;5027616;28;20484;-89
2023/05/22 02:20:14;;;;;;;11.40;10.30;;;22.50;94.10;;;;;;5044078;28;20410;-89
2023/05/22 02:22:43;;;;;;;11.63;10.60;;;22.50;94.10;;;;;;5060661;28;20444;-89
2023/05/22 02:25:13;;;;;;;10.40;9.47;;;22.50;94.20;;;;;;5060458;28;20401;-89
2023/05/22 02:27:43;;;;;;;11.80;10.17;;;22.50;94.20;;;;;;5077023;28;20421;-89
2023/05/22 02:30:10;;;;;;;10.90;9.83;;;22.40;94.20;;;;;;5043752;28;20425;-88
2023/05/22 02:32:38;;;;;;;11.40;10.30;;;22.40;94.20;;;;;;5043724;28;20905;-88
2023/05/22 02:35:04;;;;;;;12.00;10.80;;;22.40;94.20;;;;;;5039422;28;20922;-89
2023/05/22 02:37:30;;;;;;;10.73;9.63;;;22.40;94.20;;;;;;5023854;28;20537;-89
2023/05/22 02:39:57;;;;;;;11.40;10.30;;;22.40;94.20;;;;;;5023984;28;20879;-89
2023/05/22 02:42:24;;;;;;;10.93;9.83;;;22.40;94.20;;;;;;5056348;28;20446;-89
2023/05/22 02:44:53;;;;;;;12.40;11.10;;;22.30;94.20;;;;;;5022911;28;20430;-89
2023/05/22 02:47:21;;;;;;;11.53;10.40;;;22.30;94.20;;;;;;5023505;28;20458;-89
2023/05/22 02:49:49;;;;;;;10.47;9.47;;;22.30;94.20;;;;;;5023376;28;20890;-88
2023/05/22 02:52:17;;;;;;;10.93;9.97;;;22.30;94.30;;;;;;5041407;28;20410;-89
2023/05/22 02:54:43;;;;;;;11.20;10.10;;;22.30;94.30;;;;;;5039804;28;20442;-89
2023/05/22 02:57:09;;;;;;;11.40;10.40;;;22.30;94.30;;;;;;5039748;28;20425;-89
2023/05/22 02:59:35;;;;;;;11.13;9.97;;;22.30;94.30;;;;;;5039643;28;20500;-89
2023/05/22 03:02:02;;;;;;;11.50;10.43;;;22.30;94.20;;;;;;5023470;28;20194;-89
2023/05/22 03:04:28;;;;;;;10.67;9.67;;;22.20;94.20;;;;;;5023424;28;20513;-89
2023/05/22 03:07:00;;;;;;;10.80;9.80;;;22.20;94.20;;;;;;5039725;28;20747;-89
2023/05/22 03:09:26;;;;;;;11.57;10.47;;;22.20;94.20;;;;;;5023399;28;20465;-89
2023/05/22 03:11:52;;;;;;;10.73;9.73;;;22.20;94.20;;;;;;5023540;28;20434;-89
2023/05/22 03:14:18;;;;;;;10.83;9.83;;;22.20;94.20;;;;;;5039566;28;20402;-89
2023/05/22 03:16:44;;;;;;;10.73;9.73;;;22.20;94.20;;;;;;5023535;28;20427;-89
2023/05/22 03:19:11;;;;;;;10.57;9.50;;;22.20;94.20;;;;;;5039489;28;20211;-89
2023/05/22 03:21:38;;;;;;;10.80;9.80;;;22.10;94.20;;;;;;5023470;28;20281;-89
2023/05/22 03:24:04;;;;;;;10.80;9.90;;;22.10;94.20;;;;;;5039694;28;20448;-88
2023/05/22 03:26:33;;;;;;;12.00;10.87;;;22.10;94.20;;;;;;5023315;28;20429;-89
2023/05/22 03:29:04;;;;;;;11.53;10.33;;;22.10;94.20;;;;;;5039471;28;20469;-89
2023/05/22 03:31:32;;;;;;;11.17;9.90;;;22.10;94.30;;;;;;5039381;28;20441;-89
2023/05/22 03:34:07;;;;;;;11.23;10.17;;;22.10;94.30;;;;;;5022818;28;20507;-89
2023/05/22 03:36:34;;;;;;;10.53;9.63;;;22.10;94.30;;;;;;5022490;28;20454;-88
2023/05/22 03:39:03;;;;;;;11.83;10.70;;;22.10;94.30;;;;;;5039433;28;20457;-89
2023/05/22 03:41:32;;;;;;;10.70;9.70;;;22.00;94.20;;;;;;5022695;28;20768;-89
2023/05/22 03:43:58;;;;;;;10.20;9.30;;;22.00;94.30;;;;;;5022256;28;20443;-89
2023/05/22 03:46:25;;;;;;;11.03;9.90;;;22.00;94.30;;;;;;5038991;28;20422;-88
2023/05/22 03:48:51;;;;;;;10.17;9.20;;;22.00;94.30;;;;;;5023716;28;20737;-88
2023/05/22 03:51:17;;;;;;;11.30;10.23;;;22.00;94.30;;;;;;5022627;28;20612;-89
2023/05/22 03:53:43;;;;;;;10.53;9.53;;;22.00;94.30;;;;;;5006087;28;20427;-89
2023/05/22 03:56:09;;;;;;;12.00;9.90;;;22.00;94.30;;;;;;5040540;28;20445;-88
2023/05/22 03:58:35;;;;;;;10.97;9.97;;;21.90;94.30;;;;;;5023994;28;20469;-89
2023/05/22 04:01:01;;;;;;;13.13;10.50;;;21.90;94.30;;;;;;5006029;28;20507;-89
2023/05/22 04:03:27;;;;;;;10.83;9.73;;;21.90;94.30;;;;;;5039396;28;20210;-88
2023/05/22 04:05:53;;;;;;;10.83;9.73;;;21.90;94.30;;;;;;5038813;28;20422;-88
2023/05/22 04:08:21;;;;;;;10.97;9.97;;;21.90;94.40;;;;;;5022528;28;20471;-88
2023/05/22 04:10:47;;;;;;;11.37;10.17;;;21.90;94.40;;;;;;5005931;28;20436;-89
2023/05/22 04:13:15;;;;;;;10.70;9.70;;;21.90;94.40;;;;;;5038719;28;20441;-88
2023/05/22 04:15:44;;;;;;;10.87;9.87;;;21.90;94.40;;;;;;5006086;28;20529;-89
2023/05/22 04:18:13;;;;;;;10.47;9.47;;;21.90;94.40;;;;;;5038265;28;20468;-89
2023/05/22 04:20:41;;;;;;;10.97;9.97;;;21.80;94.40;;;;;;5022110;28;20422;-89
2023/05/22 04:23:08;;;;;;;11.90;10.80;;;21.80;94.70;;;;;;5021967;28;20802;-89
2023/05/22 04:25:35;;;;;;;10.57;9.47;;;21.80;94.40;;;;;;5038004;28;20442;-89
2023/05/22 04:28:02;;;;;;;10.63;9.60;;;21.80;94.40;;;;;;5038321;28;20432;-88
2023/05/22 04:30:32;;;;;;;9.77;8.77;;;21.80;94.40;;;;;;5021545;28;20862;-88
2023/05/22 04:33:00;;;;;;;10.80;9.70;;;21.80;94.40;;;;;;5022444;28;20417;-89
2023/05/22 04:35:29;;;;;;;10.50;9.50;;;21.80;94.40;;;;;;5021887;28;20444;-89
2023/05/22 04:38:01;;;;;;;10.80;9.70;;;21.70;94.40;;;;;;5021761;28;20453;-89
2023/05/22 04:40:32;;;;;;;10.63;9.63;;;21.70;94.40;;;;;;5038170;28;20432;-89
2023/05/22 04:42:59;;;;;;;10.57;9.53;;;21.70;94.40;;;;;;5054376;28;20916;-89
2023/05/22 04:45:29;;;;;;;13.47;9.10;;;21.70;94.40;;;;;;5021591;28;20426;-89
2023/05/22 04:48:01;;;;;;;9.83;8.93;;;21.70;94.40;;;;;;5021468;28;20549;-88
2023/05/22 04:50:31;;;;;;;10.00;9.10;;;21.70;94.50;;;;;;5022937;28;20430;-89
2023/05/22 04:53:02;;;;;;;10.50;9.43;;;21.70;94.50;;;;;;5028883;28;20471;-88
2023/05/22 04:55:32;;;;;;;10.10;9.10;;;21.70;94.50;;;;;;5055802;28;20407;-89
2023/05/22 04:58:01;;;;;;;10.30;9.23;;;21.70;94.50;;;;;;5046237;28;20461;-89
2023/05/22 05:00:27;;;;;;;10.90;9.90;;;21.60;94.50;;;;;;5024289;28;20466;-89
2023/05/22 05:02:54;;;;;;;10.20;9.30;;;21.60;94.50;;;;;;5037650;28;20432;-89
2023/05/22 05:05:22;;;;;;;11.07;9.87;;;21.60;94.50;;;;;;5022027;28;20458;-89
2023/05/22 05:07:49;;;;;;;10.47;9.47;;;21.60;94.50;;;;;;5037544;28;20457;-89
2023/05/22 05:10:15;;;;;;;10.47;9.40;;;21.60;94.50;;;;;;5037729;28;20797;-89
2023/05/22 05:12:41;;;;;;;9.60;8.60;;;21.60;94.50;;;;;;5021184;28;20520;-88
2023/05/22 05:15:07;;;;;;;9.83;8.93;;;21.60;94.50;;;;;;5021950;28;20465;-88
2023/05/22 05:17:36;;;;;;;9.57;8.70;;;21.60;94.50;;;;;;5021351;28;20528;-88
2023/05/22 05:20:05;;;;;;;10.30;9.40;;;21.60;94.50;;;;;;5020989;28;20484;-88
2023/05/22 05:22:34;;;;;;;9.83;8.93;;;21.60;94.50;;;;;;5037567;28;20469;-88
2023/05/22 05:25:09;;;;;;;10.20;9.17;;;21.60;94.50;;;;;;5021541;28;20963;-88
2023/05/22 05:27:35;;;;;;;10.07;9.03;;;21.60;94.50;;;;;;5054100;28;20466;-89
2023/05/22 05:30:01;;;;;;;9.10;8.23;;;21.60;94.60;;;;;;5004914;28;20430;-88
2023/05/22 05:32:40;;;;;;;10.30;9.30;;;21.50;94.50;;;;;;5037318;28;20563;-88
2023/05/22 05:35:17;;;;;;;10.10;9.20;;;21.50;94.60;;;;;;5022904;28;20429;-88
2023/05/22 05:37:46;;;;;;;8.87;8.07;;;21.50;94.50;;;;;;5037184;28;20461;-88
2023/05/22 05:40:12;;;;;;;9.43;8.43;;;21.50;94.50;;;;;;5020640;28;20889;-89
2023/05/22 05:42:43;;;;;;;9.23;8.43;;;21.50;94.60;;;;;;5021010;28;20427;-88
2023/05/22 05:45:10;;;;;;;9.37;8.57;;;21.50;94.60;;;;;;5037061;28;20445;-88
2023/05/22 05:47:36;;;;;;;9.53;8.73;;;21.50;94.60;;;;;;5020550;28;20901;-88
2023/05/22 05:50:02;;;;;;;10.97;8.87;;;21.50;94.50;;;;;;5020512;28;20933;-88
2023/05/22 05:52:34;;;;;;;9.40;8.60;;;21.50;94.50;;;;;;5037734;28;20465;-88
2023/05/22 05:55:04;;;;;;;10.47;9.57;;;21.50;94.60;;;;;;5020892;28;20802;-88
2023/05/22 05:57:30;;;;;;;9.63;8.67;;;21.50;94.60;;;;;;5004281;28;20505;-89
2023/05/22 05:59:56;;;;;;;8.80;7.97;;;21.40;94.50;;;;;;5020671;28;20479;-89
2023/05/22 06:02:55;;;;;;;10.17;9.20;;;21.40;94.60;;;;;;5041829;28;20756;-88
2023/05/22 06:05:40;;;;;;;11.17;9.07;;;21.40;94.70;;;;;;5053567;28;20409;-88
2023/05/22 06:08:18;;;;;;;10.77;9.67;;;21.40;94.80;;;;;;5005754;28;20486;-88
2023/05/22 06:10:46;;;;;;;10.57;9.53;;;21.40;95.00;;;;;;5036963;28;20425;-88
2023/05/22 06:13:17;;;;;;;12.13;11.00;;;21.40;95.00;;;;;;5037254;28;20524;-88
2023/05/22 06:15:45;;;;;;;11.70;10.50;;;21.40;95.00;;;;;;5004149;28;20425;-89
2023/05/22 06:18:16;;;;;;;11.20;10.10;;;21.40;95.10;;;;;;5022432;28;20452;-89
2023/05/22 06:20:42;;;;;;;10.90;9.90;;;21.40;95.10;;;;;;5040739;28;20412;-89
2023/05/22 06:23:08;;;;;;;11.17;10.20;;;21.40;95.10;;;;;;5024155;28;20440;-89
2023/05/22 06:25:34;;;;;;;11.47;10.27;;;21.30;95.00;;;;;;5007629;28;20946;-88
2023/05/22 06:28:00;;;;;;;11.40;10.30;;;21.40;95.10;;;;;;5023994;28;20228;-89
2023/05/22 06:30:29;;;;;;;12.57;11.43;;;21.30;95.10;;;;;;5040105;28;20487;-89
2023/05/22 06:32:55;;;;;;;12.03;10.80;;;21.30;95.10;;;;;;5023860;28;20464;-89
2023/05/22 06:35:21;;;;;;;12.20;11.00;;;21.30;95.10;;;;;;5023714;28;20441;-89
2023/05/22 06:37:47;;;;;;;10.73;9.70;;;21.30;95.00;;;;;;5057139;28;20445;-88
2023/05/22 06:40:13;;;;;;;10.57;9.50;;;21.30;95.00;;;;;;5042231;28;20467;-88
2023/05/22 06:42:46;;;;;;;12.33;11.13;;;21.30;95.10;;;;;;5024663;28;20424;-88
2023/05/22 06:45:36;;;;;;;12.03;10.63;;;21.30;95.10;;;;;;5029263;28;20874;-87
2023/05/22 06:48:22;;;;;;;13.40;12.10;;;21.30;95.20;;;;;;5026117;28;20488;-87
2023/05/22 06:51:03;;;;;;;13.30;12.00;;;21.30;95.30;;;;;;5023776;28;20432;-88
2023/05/22 06:53:31;;;;;;;12.03;10.83;;;21.30;95.40;;;;;;5023271;28;20456;-88
2023/05/22 06:55:57;;;;;;;12.87;11.67;;;21.30;95.40;;;;;;5023366;28;20528;-88
2023/05/22 06:58:43;;;;;;;13.10;11.80;;;21.30;95.40;;;;;;5025233;28;20528;-88
2023/05/22 07:01:10;;;;;;;14.67;13.10;;;21.30;95.30;;;;;;5039820;28;20496;-88
2023/05/22 07:03:44;;;;;;;13.50;12.20;;;21.30;95.30;;;;;;5024153;28;20402;-88
2023/05/22 07:06:31;;;;;;;13.60;12.20;;;21.30;95.30;;;;;;5023243;28;20440;-88
2023/05/22 07:08:57;;;;;;;14.77;13.30;;;21.30;95.40;;;;;;5023100;28;20429;-88
2023/05/22 07:11:23;;;;;;;14.50;13.10;;;21.30;95.50;;;;;;5039526;28;20476;-88
2023/05/22 07:13:51;;;;;;;16.03;14.53;;;21.30;95.70;;;;;;5039402;28;20418;-88
2023/05/22 07:16:17;;;;;;;18.53;15.33;;;21.30;96.00;;;;;;5039351;28;20523;-87
2023/05/22 07:18:44;;;;;;;17.73;15.77;;;21.30;96.10;;;;;;5023023;28;20783;-88
2023/05/22 07:21:11;;;;;;;17.40;15.63;;;21.30;96.00;;;;;;5022833;28;20536;-87
2023/05/22 07:23:37;;;;;;;20.80;15.93;;;21.30;96.10;;;;;;5022836;28;20767;-87
2023/05/22 07:26:05;;;;;;;18.97;16.97;;;21.30;96.10;;;;;;5023032;28;20422;-88
2023/05/22 07:28:35;;;;;;;20.13;18.03;;;21.30;96.30;;;;;;5023075;28;20402;-88
2023/05/22 07:31:09;;;;;;;17.10;15.40;;;21.30;96.40;;;;;;5055625;28;20405;-89
2023/05/22 07:33:41;;;;;;;17.90;16.00;;;21.30;96.60;;;;;;5006984;28;20507;-88
2023/05/22 07:36:07;;;;;;;19.20;17.07;;;21.30;96.50;;;;;;5006157;28;20455;-88
2023/05/22 07:38:35;;;;;;;17.57;15.87;;;21.20;96.30;;;;;;5006647;28;20483;-89
2023/05/22 07:41:03;;;;;;;17.23;15.10;;;21.30;96.40;;;;;;5006357;28;20457;-88
2023/05/22 07:43:30;;;;;;;18.37;16.50;;;21.20;96.20;;;;;;5022207;28;20917;-89
2023/05/22 07:45:57;;;;;;;22.80;17.03;;;21.30;96.20;;;;;;5039287;28;20416;-88
2023/05/22 07:48:27;;;;;;;17.57;14.83;;;21.30;96.40;;;;;;5038970;28;20421;-89
2023/05/22 07:50:53;;;;;;;22.57;20.27;;;21.30;96.50;;;;;;5022554;28;20440;-88
2023/05/22 07:53:22;;;;;;;20.13;18.03;;;21.30;96.50;;;;;;5038798;28;20453;-89
2023/05/22 07:55:50;;;;;;;19.17;17.17;;;21.30;96.60;;;;;;5038705;28;20775;-89
2023/05/22 07:58:16;;;;;;;21.20;18.67;;;21.30;96.70;;;;;;5022319;28;20453;-89
2023/05/22 08:00:44;;;;;;;18.73;16.83;;;21.30;96.60;;;;;;5038811;28;20786;-89
2023/05/22 08:03:10;;;;;;;21.80;19.57;;;21.30;96.60;;;;;;5038636;28;20441;-89
2023/05/22 08:05:36;;;;;;;20.67;18.50;;;21.30;96.60;;;;;;5038556;28;20445;-89
2023/05/22 08:08:02;;;;;;;23.10;20.67;;;21.30;96.60;;;;;;5005898;28;20946;-89
2023/05/22 08:10:28;;;;;;;22.10;19.27;;;21.30;96.60;;;;;;5005885;28;20587;-89
2023/05/22 08:13:01;;;;;;;23.07;19.70;;;21.30;96.80;;;;;;5038866;28;20448;-89
2023/05/22 08:15:27;;;;;;;22.30;19.87;;;21.30;96.90;;;;;;5005980;28;20441;-89
2023/05/22 08:17:53;;;;;;;22.70;19.63;;;21.30;96.80;;;;;;5021899;28;20930;-89
2023/05/22 08:20:19;;;;;;;20.10;18.03;;;21.30;96.80;;;;;;5038617;28;20475;-89
2023/05/22 08:22:44;;;;;;;21.23;18.83;;;21.30;96.80;;;;;;5005848;28;20578;-90
2023/05/22 08:25:10;;;;;;;19.67;17.67;;;21.20;96.70;;;;;;5038603;28;20947;-90
2023/05/22 08:27:36;;;;;;;24.60;21.13;;;21.30;96.80;;;;;;5021973;28;20187;-90
2023/05/22 08:30:03;;;;;;;21.37;19.13;;;21.20;96.60;;;;;;5038295;28;20205;-89
2023/05/22 08:32:30;;;;;;;22.33;19.33;;;21.20;96.60;;;;;;5022527;28;20449;-89
2023/05/22 08:34:58;;;;;;;20.13;18.10;;;21.20;96.60;;;;;;5022284;28;20488;-89
2023/05/22 08:37:25;;;;;;;20.73;18.60;;;21.30;96.60;;;;;;5022100;28;21028;-89
2023/05/22 08:39:51;;;;;;;20.63;18.43;;;21.20;96.50;;;;;;5021965;28;20449;-89
2023/05/22 08:42:16;;;;;;;20.67;18.57;;;21.20;96.40;;;;;;5037241;28;20417;-90
2023/05/22 08:44:43;;;;;;;23.40;19.30;;;21.20;96.40;;;;;;5005689;28;20959;-90
2023/05/22 08:47:13;;;;;;;23.80;18.40;;;21.20;96.50;;;;;;5038342;28;20571;-90
2023/05/22 08:49:39;;;;;;;22.97;19.23;;;21.20;96.60;;;;;;5054854;28;20481;-90
2023/05/22 08:52:32;;;;;;;21.70;19.50;;;21.20;96.60;;;;;;5021807;28;20421;-90
2023/05/22 08:55:01;;;;;;;19.50;17.23;;;21.20;96.60;;;;;;4995966;28;20437;-90
2023/05/22 08:57:31;;;;;;;21.73;19.40;;;21.20;96.70;;;;;;5021607;28;20468;-90
2023/05/22 08:59:59;;;;;;;19.13;17.13;;;21.30;96.80;;;;;;5022045;28;20426;-90
2023/05/22 09:02:26;;;;;;;22.10;19.83;;;21.20;96.80;;;;;;5005235;28;20430;-90
2023/05/22 09:04:52;;;;;;;24.33;18.50;;;21.20;96.80;;;;;;5005426;28;20531;-90
2023/05/22 09:07:20;;;;;;;23.40;19.33;;;21.30;97.00;;;;;;5037992;28;20523;-90
2023/05/22 09:09:46;;;;;;;22.33;19.03;;;21.30;97.00;;;;;;5021410;28;20434;-89
2023/05/22 09:12:15;;;;;;;21.90;19.57;;;21.30;97.00;;;;;;5021390;28;20765;-89
2023/05/22 09:14:42;;;;;;;22.57;20.07;;;21.30;96.90;;;;;;5037853;28;20799;-90
2023/05/22 09:17:13;;;;;;;20.17;18.17;;;21.30;96.90;;;;;;5005083;28;20921;-89
2023/05/22 09:19:46;;;;;;;20.50;18.40;;;21.30;97.00;;;;;;5008608;28;20472;-90
2023/05/22 09:22:12;;;;;;;19.20;16.57;;;21.30;97.40;;;;;;5024547;28;20561;-90
2023/05/22 09:24:43;;;;;;;21.23;18.33;;;21.30;97.00;;;;;;5038514;28;20429;-89
2023/05/22 09:27:11;;;;;;;20.23;18.13;;;21.30;96.90;;;;;;5021673;28;20453;-90
2023/05/22 09:29:56;;;;;;;23.03;19.03;;;21.30;96.90;;;;;;5005417;28;20421;-91
2023/05/22 09:32:22;;;;;;;19.20;17.13;;;21.30;96.80;;;;;;5039553;28;20466;-89
2023/05/22 09:34:49;;;;;;;20.73;18.63;;;21.30;96.90;;;;;;5021691;28;20429;-90
2023/05/22 09:37:17;;;;;;;22.70;20.30;;;21.30;97.00;;;;;;5037719;28;20735;-90
2023/05/22 09:39:51;;;;;;;26.73;21.30;;;21.30;97.00;;;;;;5025419;28;20443;-89
2023/05/22 09:42:20;;;;;;;21.43;19.13;;;21.30;97.30;;;;;;5005111;28;20786;-89
2023/05/22 09:44:51;;;;;;;22.87;19.63;;;21.30;97.40;;;;;;5005092;28;20465;-91
2023/05/22 09:47:17;;;;;;;29.27;23.30;;;21.30;97.30;;;;;;5021636;28;20438;-90
2023/05/22 09:49:44;;;;;;;25.97;20.33;;;21.30;97.60;;;;;;5037602;28;20956;-89
2023/05/22 09:52:14;;;;;;;21.93;18.97;;;21.30;97.90;;;;;;5038273;28;20424;-89
2023/05/22 09:54:53;;;;;;;21.60;17.90;;;21.30;97.80;;;;;;5005671;28;20430;-88
2023/05/22 09:57:22;;;;;;;19.27;17.27;;;21.30;97.60;;;;;;5005734;28;20430;-89
2023/05/22 09:59:56;;;;;;;20.30;16.90;;;21.30;97.50;;;;;;5022669;28;20406;-89
2023/05/22 10:02:26;;;;;;;21.03;18.30;;;21.30;97.40;;;;;;5022586;28;20453;-91
2023/05/22 10:04:53;;;;;;;20.37;17.53;;;21.30;97.30;;;;;;5021747;28;20488;-89
2023/05/22 10:07:27;;;;;;;21.37;19.07;;;21.30;97.20;;;;;;5005785;28;20516;-90
2023/05/22 10:10:04;;;;;;;19.90;17.80;;;21.30;97.20;;;;;;5021521;28;20813;-90
2023/05/22 10:12:41;;;;;;;24.80;18.83;;;21.30;97.30;;;;;;5005367;28;20434;-91
2023/05/22 10:15:08;;;;;;;19.97;17.87;;;21.40;97.40;;;;;;4989189;28;20461;-90
2023/05/22 10:17:35;;;;;;;22.97;20.67;;;21.40;97.40;;;;;;5021435;28;20829;-91
2023/05/22 10:20:06;;;;;;;19.37;17.37;;;21.40;97.20;;;;;;5021326;28;20473;-91
2023/05/22 10:22:42;;;;;;;23.27;19.63;;;21.40;97.40;;;;;;5021460;28;20410;-90
2023/05/22 10:25:09;;;;;;;17.80;16.00;;;21.40;97.50;;;;;;5021699;28;20429;-90
2023/05/22 10:27:37;;;;;;;19.33;17.33;;;21.40;97.40;;;;;;5021660;28;20721;-91
2023/05/22 10:30:09;;;;;;;21.13;18.87;;;21.40;97.30;;;;;;5021156;28;20451;-92
2023/05/22 10:32:44;;;;;;;22.83;20.40;;;21.40;97.50;;;;;;5021556;28;20457;-91
2023/05/22 10:35:16;;;;;;;17.47;15.67;;;21.40;97.70;;;;;;5005675;28;20461;-91
2023/05/22 10:37:55;;;;;;;20.23;18.13;;;21.40;97.50;;;;;;4989193;28;20455;-90
2023/05/22 10:40:32;;;;;;;29.67;22.97;;;21.40;97.40;;;;;;5021308;28;20477;-92
2023/05/22 10:43:01;;;;;;;20.50;17.77;;;21.40;97.80;;;;;;5021164;28;20900;-92
2023/05/22 10:45:28;;;;;;;26.53;21.30;;;21.40;97.40;;;;;;4988856;28;20427;-91
2023/05/22 10:48:08;;;;;;;19.30;17.27;;;21.40;97.30;;;;;;4988941;28;20458;-92
2023/05/22 10:50:34;;;;;;;22.53;20.13;;;21.50;97.70;;;;;;5005296;28;20404;-92
2023/05/22 10:53:23;;;;;;;28.07;20.27;;;21.50;97.60;;;;;;4988349;28;20454;-91
2023/05/22 10:55:54;;;;;;;16.27;14.57;;;21.50;97.90;;;;;;5037706;28;20430;-92
2023/05/22 10:58:30;;;;;;;24.60;21.50;;;21.50;97.70;;;;;;5020687;28;20481;-92
2023/05/22 11:01:16;;;;;;;24.60;19.83;;;21.50;97.70;;;;;;5020800;28;20442;-91
2023/05/22 11:03:52;;;;;;;20.20;18.10;;;21.50;97.80;;;;;;5003517;28;21686;-91
2023/05/22 11:06:45;;;;;;;18.70;14.80;;;21.50;97.80;;;;;;5004676;28;20418;-93
2023/05/22 11:09:22;;;;;;;19.83;17.83;;;21.50;97.60;;;;;;5004292;28;20415;-91
2023/05/22 11:12:12;;;;;;;18.60;16.60;;;21.60;97.70;;;;;;5004677;28;20521;-91
2023/05/22 11:15:04;;;;;;;19.77;17.60;;;21.60;97.80;;;;;;4988153;28;20473;-92
2023/05/22 11:17:39;;;;;;;18.30;16.40;;;21.60;98.00;;;;;;5020683;28;20457;-93
2023/05/22 11:20:12;;;;;;;16.60;14.90;;;21.60;97.90;;;;;;5004407;28;20429;-92
2023/05/22 11:22:48;;;;;;;18.93;17.03;;;21.60;97.80;;;;;;5004366;28;20429;-94
2023/05/22 11:25:19;;;;;;;20.10;16.80;;;21.60;97.80;;;;;;4988283;28;20761;-94
2023/05/22 11:27:49;;;;;;;19.50;17.47;;;21.70;98.00;;;;;;5020180;28;20485;-93
2023/05/22 11:30:16;;;;;;;19.47;17.13;;;21.70;98.10;;;;;;5004774;28;20472;-93
2023/05/22 11:32:46;;;;;;;21.00;18.73;;;21.70;98.20;;;;;;5020304;28;20782;-92
2023/05/22 11:35:21;;;;;;;21.10;18.90;;;21.70;98.20;;;;;;5020599;28;20453;-94
2023/05/22 11:37:54;;;;;;;22.17;19.83;;;21.80;98.30;;;;;;5003908;28;20461;-94
2023/05/22 11:40:24;;;;;;;23.53;20.67;;;21.80;98.40;;;;;;5020904;28;20897;-94
2023/05/22 11:42:51;;;;;;;21.70;19.40;;;21.80;98.50;;;;;;5004097;28;20469;-93
2023/05/22 11:45:17;;;;;;;24.10;20.37;;;21.80;98.60;;;;;;5003866;28;20562;-95
2023/05/22 11:47:46;;;;;;;19.57;17.57;;;21.90;98.70;;;;;;5020591;28;20515;-94
2023/05/22 11:50:30;;;;;;;24.83;19.53;;;21.90;98.60;;;;;;5004060;28;20447;-92
2023/05/22 11:53:01;;;;;;;23.80;19.07;;;21.90;98.50;;;;;;5004170;28;20747;-93
2023/05/22 11:55:32;;;;;;;19.73;17.60;;;21.90;98.50;;;;;;5020006;28;20461;-93
2023/05/22 11:58:01;;;;;;;20.73;18.63;;;22.00;98.50;;;;;;5003618;28;20465;-93
2023/05/22 12:00:37;;;;;;;18.93;17.03;;;22.00;98.40;;;;;;5020128;28;20442;-94
2023/05/22 12:03:07;;;;;;;20.27;18.10;;;22.00;98.40;;;;;;4987603;28;20423;-94
2023/05/22 12:05:38;;;;;;;24.10;20.73;;;22.00;98.30;;;;;;5019859;28;20467;-94
2023/05/22 12:08:07;;;;;;;20.37;18.20;;;22.10;98.50;;;;;;5003413;28;20875;-95
2023/05/22 12:10:33;;;;;;;21.53;19.23;;;22.10;98.50;;;;;;5019681;28;20415;-94
2023/05/22 12:12:59;;;;;;;20.00;17.90;;;22.10;98.60;;;;;;5003747;28;20462;-91
2023/05/22 12:18:34;;;;;;;20.90;18.00;;;22.20;98.50;;;;;;5003050;28;20557;-94
2023/05/22 12:21:18;;;;;;;21.17;18.93;;;22.20;98.40;;;;;;5022110;28;20496;-95
2023/05/22 12:23:50;;;;;;;22.17;18.87;;;22.20;98.30;;;;;;5019874;28;20828;-95
2023/05/22 12:26:20;;;;;;;23.50;19.43;;;22.30;98.40;;;;;;5019932;28;20415;-93
2023/05/22 12:28:46;;;;;;;22.13;18.83;;;22.30;98.50;;;;;;5019547;28;20427;-94
2023/05/22 12:31:21;;;;;;;22.90;20.40;;;22.30;98.50;;;;;;5003560;28;20481;-93
2023/05/22 12:34:49;;;;;;;22.77;19.77;;;22.40;98.50;;;;;;4976310;28;20421;-94
2023/05/22 12:37:39;;;;;;;;;;;;;;;;;;;;;
2023/05/22 12:40:32;;;;;;;22.60;20.20;;;22.40;98.80;;;;;;4962282;28;20433;-96
2023/05/22 12:43:33;;;;;;;22.23;19.20;;;22.50;98.80;;;;;;4960036;28;20783;-95
2023/05/22 12:46:11;;;;;;;23.30;18.10;;;22.50;98.60;;;;;;4960019;28;20479;-95
2023/05/22 12:48:37;;;;;;;23.40;19.03;;;22.50;98.60;;;;;;4960097;28;20438;-91
2023/05/22 12:51:08;;;;;;;24.70;21.73;;;22.50;98.70;;;;;;4959848;28;20899;-96